Jump to content

Recommended Posts

Hi,

I don't know if this is a Euroscope issue or a vatsim.net issue.

What source does Euroscope use for METARs?

 

Recently, ES has randomly given me random out of date METARs amongst the correct METARs. I've just been on EGCC_1_APP and had the correct 1750z METAR:

EGCC 041750Z AUTO 07010KT 9999 FEW035 13/05 Q1021

This was correct as per metar.vatsim.net (as well as NOAA): 

4f8dc05b3a.png

 

Then I randomly got this new METAR from 0020z:

17e3265b57.png

 

Other controllers adjacent to me reported having the correct 1750z METAR, and pressing 'GET METAR' in the ATIS popup did nothing for me.

 

Anyone experienced anything like this?

 

Cheers

Link to post
Share on other sites

Please sign in to comment

You will be able to leave a comment after signing in



Sign In Now
×
×
  • Create New...